createdAt,value
2018-02-09T00:01:27.950Z,73.77
2018-02-09T00:03:56.316Z,73.82
2018-02-09T00:06:24.617Z,73.77
2018-02-09T00:08:52.990Z,73.85
2018-02-09T00:11:21.294Z,73.83
2018-02-09T00:13:49.605Z,73.79
2018-02-09T00:16:17.928Z,73.83
2018-02-09T00:18:46.221Z,73.64
2018-02-09T00:21:14.523Z,73.56
2018-02-09T00:23:42.843Z,73.68
2018-02-09T00:26:11.958Z,73.73
2018-02-09T00:28:40.315Z,73.72
2018-02-09T00:31:09.393Z,73.65
2018-02-09T00:33:37.707Z,73.70
2018-02-09T00:36:06.783Z,73.82
2018-02-09T00:38:35.136Z,73.81
2018-02-09T00:41:03.452Z,73.76
2018-02-09T00:43:31.763Z,73.74
2018-02-09T00:46:00.847Z,73.78
2018-02-09T00:48:29.908Z,73.75
2018-02-09T00:50:58.217Z,73.62
2018-02-09T00:53:26.531Z,73.67
2018-02-09T00:55:54.847Z,73.76
2018-02-09T00:58:23.176Z,73.77
2018-02-09T01:00:52.297Z,73.75
2018-02-09T01:03:20.661Z,73.75
2018-02-09T01:05:48.958Z,74.00
2018-02-09T01:08:18.059Z,73.98
2018-02-09T01:10:46.365Z,73.86
2018-02-09T01:13:14.715Z,73.76
2018-02-09T01:15:43.056Z,73.85
2018-02-09T01:18:12.223Z,73.82
2018-02-09T01:20:40.588Z,73.80
2018-02-09T01:23:08.913Z,73.77
2018-02-09T01:25:37.286Z,73.74
2018-02-09T01:28:05.577Z,73.74
2018-02-09T01:30:33.924Z,73.83
2018-02-09T01:33:02.993Z,73.96
2018-02-09T01:35:32.074Z,74.08
2018-02-09T01:38:00.383Z,74.14
2018-02-09T01:40:28.698Z,74.29
2018-02-09T01:42:56.991Z,74.40
2018-02-09T01:45:25.309Z,74.38
2018-02-09T01:47:53.851Z,74.42
2018-02-09T01:50:22.165Z,74.48
2018-02-09T01:52:50.511Z,74.51
2018-02-09T01:55:18.808Z,74.58
2018-02-09T01:57:47.131Z,74.59
2018-02-09T02:00:16.215Z,74.83
2018-02-09T02:02:44.519Z,74.75
2018-02-09T02:05:13.613Z,74.77
2018-02-09T02:07:42.726Z,74.76
2018-02-09T02:10:11.865Z,74.85
2018-02-09T02:12:40.329Z,74.97
2018-02-09T02:15:08.631Z,74.97
2018-02-09T02:17:36.933Z,75.01
2018-02-09T02:20:05.231Z,75.01
2018-02-09T02:22:34.063Z,74.95
2018-02-09T02:25:03.147Z,74.97
2018-02-09T02:27:31.463Z,74.88
2018-02-09T02:29:59.789Z,74.88
2018-02-09T02:32:28.117Z,74.81
2018-02-09T02:34:56.417Z,74.80
2018-02-09T02:37:24.734Z,74.64
2018-02-09T02:39:53.079Z,74.58
2018-02-09T02:42:21.409Z,74.59
2018-02-09T02:44:50.596Z,74.51
2018-02-09T02:47:18.926Z,74.40
2018-02-09T02:49:47.219Z,74.30
2018-02-09T02:52:15.574Z,74.28
2018-02-09T02:54:44.655Z,74.18
2018-02-09T02:57:12.985Z,74.15
2018-02-09T02:59:41.338Z,74.18
2018-02-09T03:02:10.404Z,74.05
2018-02-09T03:04:38.703Z,74.01
2018-02-09T03:07:07.038Z,73.91
2018-02-09T03:09:35.356Z,73.88
2018-02-09T03:12:03.672Z,73.88
2018-02-09T03:14:32.788Z,73.69
2018-02-09T03:17:01.081Z,73.63
2018-02-09T03:19:29.386Z,73.41
2018-02-09T03:21:57.676Z,73.42
2018-02-09T03:24:25.965Z,73.31
2018-02-09T03:26:54.260Z,73.19
2018-02-09T03:29:22.587Z,73.08
2018-02-09T03:31:50.968Z,73.02
2018-02-09T03:34:19.283Z,72.96
2018-02-09T03:36:47.699Z,72.93
2018-02-09T03:39:16.771Z,72.87
2018-02-09T03:41:45.176Z,72.85
2018-02-09T03:44:13.501Z,72.77
2018-02-09T03:46:41.970Z,72.70
2018-02-09T03:49:10.292Z,72.69
2018-02-09T03:51:38.607Z,72.61
2018-02-09T03:54:06.933Z,72.57
2018-02-09T03:56:35.265Z,72.26
2018-02-09T03:59:03.616Z,72.03
2018-02-09T04:01:31.905Z,72.02
2018-02-09T04:04:00.211Z,71.92
2018-02-09T04:06:28.545Z,71.86
2018-02-09T04:08:56.853Z,71.75
2018-02-09T04:11:25.175Z,71.71
2018-02-09T04:13:54.273Z,71.69
2018-02-09T04:16:23.383Z,71.78
2018-02-09T04:18:52.517Z,71.68
2018-02-09T04:21:20.853Z,71.69
2018-02-09T04:23:49.934Z,71.70
2018-02-09T04:26:18.257Z,71.75
2018-02-09T04:28:46.560Z,71.65
2018-02-09T04:31:14.882Z,71.67
2018-02-09T04:33:43.235Z,71.72
2018-02-09T04:36:11.533Z,71.77
2018-02-09T04:38:39.863Z,71.88
2018-02-09T04:41:09.013Z,71.90
2018-02-09T04:43:37.341Z,71.83
2018-02-09T04:46:06.442Z,71.86
2018-02-09T04:48:35.536Z,71.89
2018-02-09T04:51:04.605Z,72.12
2018-02-09T04:53:32.907Z,72.02
2018-02-09T04:56:01.238Z,71.97
2018-02-09T04:58:29.580Z,71.87
2018-02-09T05:00:58.685Z,71.93
2018-02-09T05:03:27.769Z,71.94
2018-02-09T05:05:56.880Z,71.96
2018-02-09T05:08:25.943Z,71.94
2018-02-09T05:10:54.388Z,71.79
2018-02-09T05:13:22.727Z,71.85
2018-02-09T05:15:51.037Z,71.75
2018-02-09T05:18:20.097Z,71.85
2018-02-09T05:20:48.441Z,71.84
2018-02-09T05:23:16.741Z,71.96
2018-02-09T05:25:45.108Z,71.95
2018-02-09T05:28:13.463Z,72.05
2018-02-09T05:30:41.776Z,71.96
2018-02-09T05:33:10.153Z,71.93
2018-02-09T05:35:38.451Z,71.79
2018-02-09T05:38:07.537Z,71.96
2018-02-09T05:40:35.836Z,72.03
2018-02-09T05:43:04.150Z,72.05
2018-02-09T05:45:32.473Z,71.84
2018-02-09T05:48:00.793Z,71.66
2018-02-09T05:50:29.101Z,71.73
2018-02-09T05:52:58.165Z,71.59
2018-02-09T05:55:26.571Z,71.57
2018-02-09T05:57:54.883Z,71.45
2018-02-09T06:00:23.212Z,71.50
2018-02-09T06:02:51.569Z,71.46
2018-02-09T06:05:19.887Z,71.35
2018-02-09T06:07:48.917Z,71.24
2018-02-09T06:10:18.652Z,71.27
2018-02-09T06:12:46.971Z,71.14
2018-02-09T06:15:15.288Z,71.26
2018-02-09T06:17:44.382Z,71.21
2018-02-09T06:20:12.682Z,71.24
2018-02-09T06:22:41.750Z,71.17
2018-02-09T06:25:10.077Z,71.12
2018-02-09T06:27:38.364Z,71.05
2018-02-09T06:30:07.279Z,71.08
2018-02-09T06:32:35.583Z,71.06
2018-02-09T06:35:03.914Z,70.97
2018-02-09T06:37:32.971Z,71.02
2018-02-09T06:40:01.290Z,71.03
2018-02-09T06:42:30.373Z,71.21
2018-02-09T06:44:59.478Z,71.20
2018-02-09T06:47:28.543Z,71.22
2018-02-09T06:49:56.853Z,71.14
2018-02-09T06:52:25.926Z,71.27
2018-02-09T06:54:54.225Z,71.26
2018-02-09T06:57:22.680Z,71.20
2018-02-09T06:59:50.992Z,71.14
2018-02-09T07:02:19.305Z,71.17
2018-02-09T07:04:47.628Z,71.17
2018-02-09T07:07:15.944Z,71.14
2018-02-09T07:09:44.269Z,71.14
2018-02-09T07:12:12.557Z,71.08
2018-02-09T07:14:40.861Z,71.06
2018-02-09T07:17:09.177Z,70.97
2018-02-09T07:19:38.256Z,70.85
2018-02-09T07:22:06.547Z,70.82
2018-02-09T07:24:34.838Z,70.97
2018-02-09T07:27:03.144Z,70.90
2018-02-09T07:29:31.472Z,70.94
2018-02-09T07:31:59.814Z,70.87
2018-02-09T07:34:28.796Z,70.68
2018-02-09T07:36:57.108Z,70.65
2018-02-09T07:39:25.420Z,70.54
2018-02-09T07:41:53.721Z,70.59
2018-02-09T07:44:22.028Z,70.30
2018-02-09T07:49:33.434Z,69.94
2018-02-09T07:52:02.517Z,69.93
2018-02-09T07:54:30.978Z,69.95
2018-02-09T07:56:59.398Z,69.78
2018-02-09T07:59:28.468Z,69.47
2018-02-09T08:01:56.778Z,69.22
2018-02-09T08:04:25.852Z,69.20
2018-02-09T08:06:54.204Z,68.99
2018-02-09T08:09:23.277Z,68.48
2018-02-09T08:11:52.363Z,68.15
2018-02-09T08:14:21.470Z,68.06
2018-02-09T08:16:50.578Z,67.68
2018-02-09T08:19:19.664Z,67.23
2018-02-09T08:21:48.752Z,67.17
2018-02-09T08:24:17.068Z,66.74
2018-02-09T08:26:45.402Z,66.50
2018-02-09T08:29:13.761Z,66.12
2018-02-09T08:31:42.076Z,65.91
2018-02-09T08:34:10.414Z,65.79
2018-02-09T08:36:38.740Z,65.66
2018-02-09T08:39:07.327Z,65.62
2018-02-09T08:41:35.656Z,65.49
2018-02-09T08:44:03.963Z,65.47
2018-02-09T08:46:32.281Z,65.97
2018-02-09T08:49:01.358Z,65.45
2018-02-09T08:51:29.672Z,65.32
2018-02-09T08:53:58.748Z,65.73
2018-02-09T08:56:27.076Z,66.17
2018-02-09T08:58:55.376Z,65.54
2018-02-09T09:01:23.710Z,65.54
2018-02-09T09:03:52.844Z,65.15
2018-02-09T09:06:21.170Z,65.11
2018-02-09T09:08:49.503Z,65.16
2018-02-09T09:11:17.830Z,64.71
2018-02-09T09:13:46.850Z,64.76
2018-02-09T09:16:15.923Z,64.82
2018-02-09T09:18:44.252Z,64.82
2018-02-09T09:21:13.379Z,64.61
2018-02-09T09:23:41.720Z,64.67
2018-02-09T09:26:10.812Z,64.48
2018-02-09T09:28:39.988Z,64.15
2018-02-09T09:31:08.362Z,64.05
2018-02-09T09:33:36.680Z,63.59
2018-02-09T09:36:05.772Z,63.30
2018-02-09T09:38:34.075Z,63.05
2018-02-09T09:41:03.173Z,63.00
2018-02-09T09:43:31.496Z,63.18
2018-02-09T09:45:59.855Z,62.97
2018-02-09T09:48:28.170Z,62.78
2018-02-09T09:50:56.490Z,62.92
2018-02-09T09:53:24.791Z,62.49
2018-02-09T09:55:53.866Z,61.60
2018-02-09T09:58:22.187Z,61.49
2018-02-09T10:00:50.515Z,61.66
2018-02-09T10:03:18.838Z,61.85
2018-02-09T10:05:47.154Z,61.40
2018-02-09T10:08:15.485Z,60.86
2018-02-09T10:10:44.548Z,60.62
2018-02-09T10:13:12.880Z,59.92
2018-02-09T10:15:41.308Z,59.75
2018-02-09T10:18:09.646Z,59.70
2018-02-09T10:20:38.708Z,59.61
2018-02-09T10:23:07.044Z,59.67
2018-02-09T10:25:35.424Z,59.06
2018-02-09T10:28:03.838Z,59.18
2018-02-09T10:30:32.142Z,59.35
2018-02-09T10:33:00.498Z,59.03
2018-02-09T10:35:28.826Z,58.52
2018-02-09T10:37:57.916Z,58.04
2018-02-09T10:40:26.285Z,57.44
2018-02-09T10:42:54.591Z,57.62
2018-02-09T10:45:23.657Z,57.43
2018-02-09T10:47:51.995Z,57.05
2018-02-09T10:50:20.520Z,56.44
2018-02-09T10:52:48.844Z,56.34
2018-02-09T10:55:17.919Z,55.98
2018-02-09T10:57:46.242Z,55.89
2018-02-09T11:00:14.552Z,55.67
2018-02-09T11:02:42.857Z,55.68
2018-02-09T11:05:11.192Z,55.82
2018-02-09T11:07:39.502Z,55.84
2018-02-09T11:10:13.512Z,55.66
2018-02-09T11:12:43.608Z,55.48
2018-02-09T11:15:11.939Z,55.05
2018-02-09T11:17:40.260Z,55.33
2018-02-09T11:20:08.880Z,55.22
2018-02-09T11:22:37.202Z,55.02
2018-02-09T11:25:07.072Z,55.25
2018-02-09T11:27:35.386Z,55.07
2018-02-09T11:30:03.738Z,55.10
2018-02-09T11:32:32.056Z,54.88
2018-02-09T11:35:00.375Z,54.63
2018-02-09T11:37:29.444Z,54.68
2018-02-09T11:39:59.271Z,55.18
2018-02-09T11:42:28.369Z,55.05
2018-02-09T11:44:56.820Z,55.50
2018-02-09T11:47:25.182Z,54.91
2018-02-09T11:49:53.503Z,54.92
2018-02-09T11:52:21.967Z,54.64
2018-02-09T11:54:50.318Z,54.50
2018-02-09T11:57:19.299Z,54.80
2018-02-09T11:59:48.359Z,55.07
2018-02-09T12:02:16.727Z,54.86
2018-02-09T12:04:45.076Z,54.79
2018-02-09T12:07:13.385Z,54.78
2018-02-09T12:09:41.723Z,54.92
2018-02-09T12:12:10.790Z,54.85
2018-02-09T12:14:39.130Z,54.72
2018-02-09T12:17:07.428Z,54.50
2018-02-09T12:19:35.731Z,54.29
2018-02-09T12:22:04.075Z,54.36
2018-02-09T12:24:32.383Z,54.32
2018-02-09T12:27:00.696Z,53.96
2018-02-09T12:29:30.445Z,53.95
2018-02-09T12:31:59.223Z,53.63
2018-02-09T12:34:28.357Z,53.73
2018-02-09T12:36:56.691Z,53.72
2018-02-09T12:39:25.846Z,53.95
2018-02-09T12:41:54.172Z,54.04
2018-02-09T12:44:22.500Z,53.96
2018-02-09T12:46:50.808Z,53.83
2018-02-09T12:49:19.141Z,53.78
2018-02-09T12:51:48.170Z,53.69
2018-02-09T12:54:16.484Z,53.56
2018-02-09T12:56:46.312Z,53.93
2018-02-09T12:59:14.650Z,53.85
2018-02-09T13:01:42.984Z,54.34
2018-02-09T13:04:12.067Z,54.08
2018-02-09T13:06:41.155Z,54.02
2018-02-09T13:09:09.571Z,54.10
2018-02-09T13:11:39.519Z,54.08
2018-02-09T13:14:07.853Z,53.88
2018-02-09T13:16:36.259Z,53.86
2018-02-09T13:19:05.338Z,53.92
2018-02-09T13:21:34.475Z,53.79
2018-02-09T13:24:32.680Z,53.88
2018-02-09T13:27:00.998Z,53.68
2018-02-09T13:29:30.172Z,53.79
2018-02-09T13:31:58.509Z,54.11
2018-02-09T13:34:26.808Z,54.59
2018-02-09T13:40:14.819Z,54.78
2018-02-09T13:42:43.121Z,54.64
2018-02-09T13:45:11.457Z,54.79
2018-02-09T13:47:40.520Z,55.26
2018-02-09T13:50:08.866Z,55.03
2018-02-09T13:52:37.173Z,55.18
2018-02-09T13:55:05.503Z,55.48
2018-02-09T13:57:34.602Z,55.53
2018-02-09T14:00:03.697Z,55.53
2018-02-09T14:02:32.810Z,55.65
2018-02-09T14:05:01.919Z,55.75
2018-02-09T14:07:30.255Z,55.94
2018-02-09T14:09:59.460Z,56.05
2018-02-09T14:12:27.758Z,56.41
2018-02-09T14:14:56.139Z,57.00
2018-02-09T14:17:24.456Z,57.30
2018-02-09T14:19:52.819Z,57.45
2018-02-09T14:22:21.911Z,57.75
2018-02-09T14:24:50.989Z,57.94
2018-02-09T14:27:19.318Z,58.24
2018-02-09T14:29:47.623Z,59.10
2018-02-09T14:32:15.929Z,60.28
2018-02-09T14:34:44.229Z,61.47
2018-02-09T14:37:13.309Z,62.16
2018-02-09T14:39:41.639Z,62.38
2018-02-09T14:42:09.957Z,63.18
2018-02-09T14:44:38.256Z,63.82
2018-02-09T14:47:07.070Z,64.63
2018-02-09T14:49:36.177Z,65.51
2018-02-09T14:52:05.252Z,66.43
2018-02-09T14:54:33.582Z,66.45
2018-02-09T14:57:02.012Z,67.38
2018-02-09T14:59:30.367Z,67.75
2018-02-09T15:01:58.680Z,68.18
2018-02-09T15:04:27.016Z,68.34
2018-02-09T15:06:55.351Z,68.46
2018-02-09T15:09:23.663Z,68.81
2018-02-09T15:11:51.989Z,69.32
2018-02-09T15:14:20.327Z,69.74
2018-02-09T15:16:48.692Z,70.20
2018-02-09T15:19:17.773Z,70.99
2018-02-09T15:21:46.130Z,71.29
2018-02-09T15:24:14.439Z,71.73
2018-02-09T15:26:42.802Z,71.97
2018-02-09T15:29:11.125Z,72.12
2018-02-09T15:31:40.189Z,72.18
2018-02-09T15:34:08.511Z,72.41
2018-02-09T15:36:37.598Z,72.64
2018-02-09T15:39:06.696Z,72.53
2018-02-09T15:41:35.784Z,72.62
2018-02-09T15:44:04.082Z,72.66
2018-02-09T15:46:33.157Z,73.11
2018-02-09T15:49:01.471Z,73.34
2018-02-09T15:51:30.561Z,73.20
2018-02-09T15:53:59.668Z,73.14
2018-02-09T15:56:28.765Z,73.52
2018-02-09T15:58:57.845Z,73.83
2018-02-09T16:01:26.175Z,73.96
2018-02-09T16:03:54.507Z,73.94
2018-02-09T16:06:22.825Z,74.02
2018-02-09T16:08:51.899Z,74.22
2018-02-09T16:11:21.017Z,74.12
2018-02-09T16:13:49.321Z,74.06
2018-02-09T16:16:17.637Z,74.21
2018-02-09T16:18:45.955Z,74.53
2018-02-09T16:21:15.025Z,74.88
2018-02-09T16:23:43.377Z,74.92
2018-02-09T16:26:11.709Z,74.98
2018-02-09T16:28:40.793Z,74.96
2018-02-09T16:31:09.121Z,75.17
2018-02-09T16:33:37.427Z,75.47
2018-02-09T16:36:05.747Z,75.87
2018-02-09T16:38:34.845Z,76.01
2018-02-09T16:41:03.165Z,76.09
2018-02-09T16:43:31.476Z,76.19
2018-02-09T16:45:59.837Z,76.43
2018-02-09T16:48:28.143Z,76.47
2018-02-09T16:50:56.503Z,76.63
2018-02-09T16:53:24.807Z,76.82
2018-02-09T16:55:53.158Z,76.87
2018-02-09T16:58:21.551Z,76.87
2018-02-09T17:00:49.873Z,76.99
2018-02-09T17:03:18.267Z,76.90
2018-02-09T17:05:46.569Z,77.16
2018-02-09T17:08:15.648Z,77.20
2018-02-09T17:10:44.747Z,77.31
2018-02-09T17:13:13.825Z,77.46
2018-02-09T17:15:42.123Z,77.51
2018-02-09T17:18:10.485Z,77.75
2018-02-09T17:20:38.796Z,77.81
2018-02-09T17:23:07.891Z,77.95
2018-02-09T17:25:36.212Z,78.04
2018-02-09T17:28:04.541Z,78.07
2018-02-09T17:30:32.920Z,78.06
2018-02-09T17:33:01.227Z,78.07
2018-02-09T17:35:30.294Z,78.05
2018-02-09T17:37:59.524Z,78.07
2018-02-09T17:40:29.343Z,78.06
2018-02-09T17:42:58.413Z,78.22
2018-02-09T17:45:27.416Z,78.45
2018-02-09T17:47:55.734Z,78.52
2018-02-09T17:50:24.859Z,78.49
2018-02-09T17:52:53.188Z,78.58
2018-02-09T17:55:21.513Z,78.71
2018-02-09T17:57:49.851Z,79.02
2018-02-09T18:00:18.155Z,79.24
2018-02-09T18:02:47.274Z,79.39
2018-02-09T18:05:15.582Z,79.33
2018-02-09T18:07:43.912Z,79.31
2018-02-09T18:10:13.029Z,79.48
2018-02-09T18:12:41.367Z,79.54
2018-02-09T18:15:10.462Z,79.62
2018-02-09T18:17:38.790Z,79.79
2018-02-09T18:20:07.121Z,79.91
2018-02-09T18:22:35.447Z,79.95
2018-02-09T18:25:04.533Z,80.11
2018-02-09T18:27:32.906Z,80.15
2018-02-09T18:30:01.225Z,80.29
2018-02-09T18:32:29.527Z,80.39
2018-02-09T18:34:57.974Z,80.45
2018-02-09T18:37:27.031Z,80.56
2018-02-09T18:39:55.396Z,80.71
2018-02-09T18:42:23.790Z,80.76
2018-02-09T18:44:52.075Z,80.82
2018-02-09T18:47:20.431Z,80.98
2018-02-09T18:49:49.551Z,81.08
2018-02-09T18:52:17.850Z,81.08
2018-02-09T18:54:46.900Z,81.16
2018-02-09T18:57:15.228Z,81.21
2018-02-09T18:59:43.560Z,81.31
2018-02-09T19:02:11.889Z,81.45
2018-02-09T19:04:40.275Z,81.46
2018-02-09T19:07:08.655Z,81.38
2018-02-09T19:09:36.959Z,81.32
2018-02-09T19:12:05.275Z,81.27
2018-02-09T19:14:33.704Z,81.33
2018-02-09T19:17:02.036Z,81.29
2018-02-09T19:19:30.386Z,81.29
2018-02-09T19:21:59.566Z,81.35
2018-02-09T19:24:27.974Z,81.37
2018-02-09T19:26:56.320Z,81.33
2018-02-09T19:29:24.667Z,81.35
2018-02-09T19:31:53.767Z,81.44
2018-02-09T19:34:22.070Z,81.50
2018-02-09T19:36:50.371Z,81.58
2018-02-09T19:39:19.496Z,81.69
2018-02-09T19:41:47.831Z,81.77
2018-02-09T19:44:16.133Z,81.79
2018-02-09T19:46:44.458Z,81.76
2018-02-09T19:49:13.561Z,81.68
2018-02-09T19:51:42.691Z,81.70
2018-02-09T19:54:11.034Z,81.79
2018-02-09T19:56:39.850Z,81.93
2018-02-09T19:59:08.265Z,81.96
2018-02-09T20:01:36.575Z,81.89
2018-02-09T20:04:04.891Z,81.80
2018-02-09T20:06:33.235Z,81.88
2018-02-09T20:09:01.572Z,81.97
2018-02-09T20:11:29.970Z,82.06
2018-02-09T20:13:58.302Z,81.96
2018-02-09T20:16:26.691Z,82.02
2018-02-09T20:18:55.782Z,81.92
2018-02-09T20:21:24.123Z,81.98
2018-02-09T20:23:52.436Z,81.99
2018-02-09T20:26:20.767Z,81.98
2018-02-09T20:28:49.671Z,82.02
2018-02-09T20:31:18.392Z,82.06
2018-02-09T20:33:46.733Z,81.94
2018-02-09T20:36:15.040Z,81.75
2018-02-09T20:38:43.343Z,81.80
2018-02-09T20:41:11.657Z,81.77
2018-02-09T20:43:40.829Z,81.71
2018-02-09T20:46:09.139Z,81.51
2018-02-09T20:48:38.208Z,81.44
2018-02-09T20:51:06.534Z,81.43
2018-02-09T20:53:34.843Z,81.25
2018-02-09T20:56:03.537Z,81.24
2018-02-09T20:58:31.862Z,81.26
2018-02-09T21:01:00.971Z,81.31
2018-02-09T21:03:30.176Z,81.22
2018-02-09T21:05:59.252Z,81.13
2018-02-09T21:08:27.678Z,81.04
2018-02-09T21:10:56.002Z,81.05
2018-02-09T21:13:24.330Z,81.21
2018-02-09T21:15:52.658Z,81.47
2018-02-09T21:18:20.992Z,81.35
2018-02-09T21:20:50.140Z,81.56
2018-02-09T21:23:18.441Z,81.76
2018-02-09T21:25:46.774Z,81.65
2018-02-09T21:28:15.082Z,81.63
2018-02-09T21:30:43.397Z,81.60
2018-02-09T21:33:11.750Z,81.67
2018-02-09T21:35:40.148Z,81.67
2018-02-09T21:38:08.484Z,81.83
2018-02-09T21:40:36.816Z,82.05
2018-02-09T21:43:05.972Z,82.17
2018-02-09T21:45:35.116Z,82.24
2018-02-09T21:48:04.212Z,82.41
2018-02-09T21:50:32.534Z,82.64
2018-02-09T21:53:00.833Z,82.82
2018-02-09T21:55:29.168Z,82.82
2018-02-09T21:57:57.470Z,82.83
2018-02-09T22:00:26.596Z,82.86
2018-02-09T22:02:55.696Z,82.91
2018-02-09T22:05:24.016Z,82.91
2018-02-09T22:07:52.336Z,83.06
2018-02-09T22:10:21.483Z,83.10
2018-02-09T22:12:49.804Z,83.02
2018-02-09T22:15:18.104Z,82.98
2018-02-09T22:17:47.216Z,82.94
2018-02-09T22:20:15.570Z,82.91
2018-02-09T22:22:44.654Z,82.92
2018-02-09T22:25:12.964Z,82.96
2018-02-09T22:27:41.297Z,82.95
2018-02-09T22:30:09.614Z,82.96
2018-02-09T22:32:38.708Z,82.93
2018-02-09T22:35:07.856Z,82.97
2018-02-09T22:37:36.218Z,83.16
2018-02-09T22:40:04.542Z,83.27
2018-02-09T22:42:32.863Z,83.20
2018-02-09T22:45:01.955Z,83.22
2018-02-09T22:47:30.348Z,83.24
2018-02-09T22:49:59.443Z,83.12
2018-02-09T22:52:28.543Z,83.10
2018-02-09T22:54:57.638Z,83.02
2018-02-09T22:57:26.748Z,83.02
2018-02-09T22:59:55.875Z,82.99
2018-02-09T23:02:24.202Z,82.95
2018-02-09T23:04:52.513Z,82.96
2018-02-09T23:07:21.610Z,82.93
2018-02-09T23:09:50.715Z,82.82
2018-02-09T23:12:19.071Z,82.63
2018-02-09T23:14:47.381Z,82.66
2018-02-09T23:17:16.476Z,82.81
2018-02-09T23:19:45.569Z,82.85
2018-02-09T23:22:14.646Z,82.84
2018-02-09T23:24:42.954Z,82.86
2018-02-09T23:27:12.045Z,82.83
2018-02-09T23:29:40.366Z,82.74
2018-02-09T23:32:08.718Z,82.70
2018-02-09T23:34:37.811Z,82.86
2018-02-09T23:37:06.130Z,82.90
2018-02-09T23:39:34.536Z,82.80
2018-02-09T23:42:02.848Z,82.84
2018-02-09T23:44:31.945Z,82.88
2018-02-09T23:47:00.286Z,82.84
2018-02-09T23:49:28.572Z,82.67
2018-02-09T23:51:56.888Z,82.74
2018-02-09T23:54:25.400Z,82.71
2018-02-09T23:56:54.548Z,82.45
2018-02-09T23:59:22.870Z,82.37
